sensor_id;sensor_type;location;lat;lon;timestamp;temperature;humidity
22418;DHT22;11376;50.932;4.442;2023-12-20T00:00:25;6.20;99.90
22418;DHT22;11376;50.932;4.442;2023-12-20T00:02:51;6.10;99.90
22418;DHT22;11376;50.932;4.442;2023-12-20T00:05:16;6.10;99.90
22418;DHT22;11376;50.932;4.442;2023-12-20T00:07:42;6.10;99.90
22418;DHT22;11376;50.932;4.442;2023-12-20T00:10:08;6.10;99.90
22418;DHT22;11376;50.932;4.442;2023-12-20T00:12:33;6.10;99.90
22418;DHT22;11376;50.932;4.442;2023-12-20T00:14:59;6.10;99.90
22418;DHT22;11376;50.932;4.442;2023-12-20T00:17:25;6.00;99.90
22418;DHT22;11376;50.932;4.442;2023-12-20T00:19:50;6.10;99.90
22418;DHT22;11376;50.932;4.442;2023-12-20T00:22:16;6.10;99.90
22418;DHT22;11376;50.932;4.442;2023-12-20T00:24:41;6.10;99.90
22418;DHT22;11376;50.932;4.442;2023-12-20T00:27:07;6.10;99.90
22418;DHT22;11376;50.932;4.442;2023-12-20T00:29:32;6.00;99.90
22418;DHT22;11376;50.932;4.442;2023-12-20T00:31:58;6.10;99.90
22418;DHT22;11376;50.932;4.442;2023-12-20T00:34:24;6.10;99.90
22418;DHT22;11376;50.932;4.442;2023-12-20T00:36:49;6.10;99.90
22418;DHT22;11376;50.932;4.442;2023-12-20T00:39:15;6.00;99.90
22418;DHT22;11376;50.932;4.442;2023-12-20T00:41:40;6.00;99.90
22418;DHT22;11376;50.932;4.442;2023-12-20T00:44:06;6.00;99.90
22418;DHT22;11376;50.932;4.442;2023-12-20T00:46:32;6.00;99.90
22418;DHT22;11376;50.932;4.442;2023-12-20T00:48:57;6.00;99.90
22418;DHT22;11376;50.932;4.442;2023-12-20T00:51:23;5.90;99.90
22418;DHT22;11376;50.932;4.442;2023-12-20T00:53:50;5.90;99.90
22418;DHT22;11376;50.932;4.442;2023-12-20T00:56:16;5.90;99.90
22418;DHT22;11376;50.932;4.442;2023-12-20T00:58:41;5.90;99.90
22418;DHT22;11376;50.932;4.442;2023-12-20T01:01:07;5.90;99.90
22418;DHT22;11376;50.932;4.442;2023-12-20T01:03:33;5.90;99.90
22418;DHT22;11376;50.932;4.442;2023-12-20T01:05:58;5.90;99.90
22418;DHT22;11376;50.932;4.442;2023-12-20T01:08:24;5.90;99.90
22418;DHT22;11376;50.932;4.442;2023-12-20T01:10:49;5.90;99.90
22418;DHT22;11376;50.932;4.442;2023-12-20T01:13:15;5.90;99.90
22418;DHT22;11376;50.932;4.442;2023-12-20T01:15:41;6.00;99.90
22418;DHT22;11376;50.932;4.442;2023-12-20T01:18:06;5.90;99.90
22418;DHT22;11376;50.932;4.442;2023-12-20T01:20:32;5.90;99.90
22418;DHT22;11376;50.932;4.442;2023-12-20T01:22:58;5.90;99.90
22418;DHT22;11376;50.932;4.442;2023-12-20T01:25:23;5.80;99.90
22418;DHT22;11376;50.932;4.442;2023-12-20T01:27:49;5.80;99.90
22418;DHT22;11376;50.932;4.442;2023-12-20T01:30:15;5.80;99.90
22418;DHT22;11376;50.932;4.442;2023-12-20T01:32:40;5.80;99.90
22418;DHT22;11376;50.932;4.442;2023-12-20T01:35:06;5.80;99.90
22418;DHT22;11376;50.932;4.442;2023-12-20T01:37:32;5.80;99.90
22418;DHT22;11376;50.932;4.442;2023-12-20T01:39:58;5.80;99.90
22418;DHT22;11376;50.932;4.442;2023-12-20T01:42:24;5.80;99.90
22418;DHT22;11376;50.932;4.442;2023-12-20T01:44:49;5.80;99.90
22418;DHT22;11376;50.932;4.442;2023-12-20T01:47:15;5.80;99.90
22418;DHT22;11376;50.932;4.442;2023-12-20T01:49:41;5.80;99.90
22418;DHT22;11376;50.932;4.442;2023-12-20T01:52:08;5.80;99.90
22418;DHT22;11376;50.932;4.442;2023-12-20T01:54:35;5.80;99.90
22418;DHT22;11376;50.932;4.442;2023-12-20T01:57:01;5.80;99.90
22418;DHT22;11376;50.932;4.442;2023-12-20T01:59:28;5.80;99.90
22418;DHT22;11376;50.932;4.442;2023-12-20T02:01:55;5.80;99.90
22418;DHT22;11376;50.932;4.442;2023-12-20T02:04:20;5.80;99.90
22418;DHT22;11376;50.932;4.442;2023-12-20T02:06:46;5.80;99.90
22418;DHT22;11376;50.932;4.442;2023-12-20T02:09:14;5.80;99.90
22418;DHT22;11376;50.932;4.442;2023-12-20T02:11:40;5.80;99.90
22418;DHT22;11376;50.932;4.442;2023-12-20T02:14:06;5.80;99.90
22418;DHT22;11376;50.932;4.442;2023-12-20T02:16:32;5.80;99.90
22418;DHT22;11376;50.932;4.442;2023-12-20T02:18:57;5.80;99.90
22418;DHT22;11376;50.932;4.442;2023-12-20T02:21:32;5.80;99.90
22418;DHT22;11376;50.932;4.442;2023-12-20T02:23:58;5.80;99.90
22418;DHT22;11376;50.932;4.442;2023-12-20T02:26:23;5.90;99.90
22418;DHT22;11376;50.932;4.442;2023-12-20T02:28:49;5.80;99.90
22418;DHT22;11376;50.932;4.442;2023-12-20T02:31:15;5.90;99.90
22418;DHT22;11376;50.932;4.442;2023-12-20T02:33:40;5.90;99.90
22418;DHT22;11376;50.932;4.442;2023-12-20T02:36:07;5.90;99.90
22418;DHT22;11376;50.932;4.442;2023-12-20T02:38:33;5.90;99.90
22418;DHT22;11376;50.932;4.442;2023-12-20T02:40:59;6.00;99.90
22418;DHT22;11376;50.932;4.442;2023-12-20T02:43:25;6.00;99.90
22418;DHT22;11376;50.932;4.442;2023-12-20T02:45:50;6.00;99.90
22418;DHT22;11376;50.932;4.442;2023-12-20T02:48:16;6.00;99.90
22418;DHT22;11376;50.932;4.442;2023-12-20T02:50:41;6.00;99.90
22418;DHT22;11376;50.932;4.442;2023-12-20T02:53:07;6.00;99.90
22418;DHT22;11376;50.932;4.442;2023-12-20T02:55:33;6.00;99.90
22418;DHT22;11376;50.932;4.442;2023-12-20T02:57:58;6.00;99.90
22418;DHT22;11376;50.932;4.442;2023-12-20T03:00:24;6.00;99.90
22418;DHT22;11376;50.932;4.442;2023-12-20T03:02:50;6.00;99.90
22418;DHT22;11376;50.932;4.442;2023-12-20T03:05:15;6.00;99.90
22418;DHT22;11376;50.932;4.442;2023-12-20T03:07:41;6.10;99.90
22418;DHT22;11376;50.932;4.442;2023-12-20T03:10:08;6.10;99.90
22418;DHT22;11376;50.932;4.442;2023-12-20T03:12:34;6.10;99.90
22418;DHT22;11376;50.932;4.442;2023-12-20T03:15:00;6.10;99.90
22418;DHT22;11376;50.932;4.442;2023-12-20T03:17:26;6.10;99.90
22418;DHT22;11376;50.932;4.442;2023-12-20T03:19:51;6.20;99.90
22418;DHT22;11376;50.932;4.442;2023-12-20T03:22:17;6.20;99.90
22418;DHT22;11376;50.932;4.442;2023-12-20T03:24:42;6.20;99.90
22418;DHT22;11376;50.932;4.442;2023-12-20T03:27:08;6.20;99.90
22418;DHT22;11376;50.932;4.442;2023-12-20T03:29:33;6.20;99.90
22418;DHT22;11376;50.932;4.442;2023-12-20T03:31:59;6.20;99.90
22418;DHT22;11376;50.932;4.442;2023-12-20T03:34:26;6.20;99.90
22418;DHT22;11376;50.932;4.442;2023-12-20T03:36:51;6.20;99.90
22418;DHT22;11376;50.932;4.442;2023-12-20T03:39:17;6.20;99.90
22418;DHT22;11376;50.932;4.442;2023-12-20T03:41:42;6.30;99.90
22418;DHT22;11376;50.932;4.442;2023-12-20T03:44:08;6.20;99.90
22418;DHT22;11376;50.932;4.442;2023-12-20T03:46:33;6.30;99.90
22418;DHT22;11376;50.932;4.442;2023-12-20T03:48:59;6.20;99.90
22418;DHT22;11376;50.932;4.442;2023-12-20T03:51:25;6.30;99.90
22418;DHT22;11376;50.932;4.442;2023-12-20T03:53:50;6.30;99.90
22418;DHT22;11376;50.932;4.442;2023-12-20T03:56:16;6.30;99.90
22418;DHT22;11376;50.932;4.442;2023-12-20T03:58:41;6.40;99.90
22418;DHT22;11376;50.932;4.442;2023-12-20T04:01:10;6.40;99.90
22418;DHT22;11376;50.932;4.442;2023-12-20T04:03:38;6.50;99.90
22418;DHT22;11376;50.932;4.442;2023-12-20T04:06:04;6.50;99.90
22418;DHT22;11376;50.932;4.442;2023-12-20T04:08:29;6.50;99.90
22418;DHT22;11376;50.932;4.442;2023-12-20T04:10:55;6.50;99.90
22418;DHT22;11376;50.932;4.442;2023-12-20T04:13:20;6.50;99.90
22418;DHT22;11376;50.932;4.442;2023-12-20T04:15:46;6.40;99.90
22418;DHT22;11376;50.932;4.442;2023-12-20T04:18:12;6.50;99.90
22418;DHT22;11376;50.932;4.442;2023-12-20T04:20:37;6.50;99.90
22418;DHT22;11376;50.932;4.442;2023-12-20T04:23:03;6.50;99.90
22418;DHT22;11376;50.932;4.442;2023-12-20T04:25:29;6.40;99.90
22418;DHT22;11376;50.932;4.442;2023-12-20T04:27:54;6.50;99.90
22418;DHT22;11376;50.932;4.442;2023-12-20T04:30:20;6.40;99.90
22418;DHT22;11376;50.932;4.442;2023-12-20T04:32:45;6.30;99.90
22418;DHT22;11376;50.932;4.442;2023-12-20T04:35:11;6.30;99.90
22418;DHT22;11376;50.932;4.442;2023-12-20T04:37:36;6.30;99.90
22418;DHT22;11376;50.932;4.442;2023-12-20T04:40:02;6.30;99.90
22418;DHT22;11376;50.932;4.442;2023-12-20T04:42:30;6.30;99.90
22418;DHT22;11376;50.932;4.442;2023-12-20T04:44:56;6.30;99.90
22418;DHT22;11376;50.932;4.442;2023-12-20T04:47:21;6.40;99.90
22418;DHT22;11376;50.932;4.442;2023-12-20T04:49:48;6.30;99.90
22418;DHT22;11376;50.932;4.442;2023-12-20T04:52:14;6.30;99.90
22418;DHT22;11376;50.932;4.442;2023-12-20T04:54:40;6.40;99.90
22418;DHT22;11376;50.932;4.442;2023-12-20T04:57:05;6.30;99.90
22418;DHT22;11376;50.932;4.442;2023-12-20T04:59:31;6.30;99.90
22418;DHT22;11376;50.932;4.442;2023-12-20T05:01:56;6.30;99.90
22418;DHT22;11376;50.932;4.442;2023-12-20T05:04:23;6.30;99.90
22418;DHT22;11376;50.932;4.442;2023-12-20T05:06:48;6.30;99.90
22418;DHT22;11376;50.932;4.442;2023-12-20T05:09:15;6.30;99.90
22418;DHT22;11376;50.932;4.442;2023-12-20T05:11:41;6.30;99.90
22418;DHT22;11376;50.932;4.442;2023-12-20T05:14:06;6.20;99.90
22418;DHT22;11376;50.932;4.442;2023-12-20T05:16:32;6.20;99.90
22418;DHT22;11376;50.932;4.442;2023-12-20T05:18:58;6.20;99.90
22418;DHT22;11376;50.932;4.442;2023-12-20T05:21:26;6.10;99.90
22418;DHT22;11376;50.932;4.442;2023-12-20T05:23:51;6.10;99.90
22418;DHT22;11376;50.932;4.442;2023-12-20T05:26:17;6.10;99.90
22418;DHT22;11376;50.932;4.442;2023-12-20T05:28:43;6.00;99.90
22418;DHT22;11376;50.932;4.442;2023-12-20T05:31:08;6.00;99.90
22418;DHT22;11376;50.932;4.442;2023-12-20T05:33:34;6.00;99.90
22418;DHT22;11376;50.932;4.442;2023-12-20T05:36:00;6.00;99.90
22418;DHT22;11376;50.932;4.442;2023-12-20T05:38:25;6.00;99.90
22418;DHT22;11376;50.932;4.442;2023-12-20T05:40:51;6.00;99.90
22418;DHT22;11376;50.932;4.442;2023-12-20T05:43:17;6.00;99.90
22418;DHT22;11376;50.932;4.442;2023-12-20T05:45:42;5.90;99.90
22418;DHT22;11376;50.932;4.442;2023-12-20T05:48:08;5.90;99.90
22418;DHT22;11376;50.932;4.442;2023-12-20T05:50:33;5.90;99.90
22418;DHT22;11376;50.932;4.442;2023-12-20T05:53:00;5.90;99.90
22418;DHT22;11376;50.932;4.442;2023-12-20T05:55:26;6.00;99.90
22418;DHT22;11376;50.932;4.442;2023-12-20T05:57:51;6.00;99.90
22418;DHT22;11376;50.932;4.442;2023-12-20T06:00:18;6.10;99.90
22418;DHT22;11376;50.932;4.442;2023-12-20T06:02:43;6.00;99.90
22418;DHT22;11376;50.932;4.442;2023-12-20T06:05:09;6.00;99.90
22418;DHT22;11376;50.932;4.442;2023-12-20T06:07:35;6.00;99.90
22418;DHT22;11376;50.932;4.442;2023-12-20T06:10:00;6.00;99.90
22418;DHT22;11376;50.932;4.442;2023-12-20T06:12:26;6.10;99.90
22418;DHT22;11376;50.932;4.442;2023-12-20T06:14:54;6.00;99.90
22418;DHT22;11376;50.932;4.442;2023-12-20T06:17:19;6.00;99.90
22418;DHT22;11376;50.932;4.442;2023-12-20T06:19:45;6.00;99.90
22418;DHT22;11376;50.932;4.442;2023-12-20T06:22:14;6.10;99.90
22418;DHT22;11376;50.932;4.442;2023-12-20T06:24:39;6.10;99.90
22418;DHT22;11376;50.932;4.442;2023-12-20T06:27:05;6.10;99.90
22418;DHT22;11376;50.932;4.442;2023-12-20T06:29:30;6.10;99.90
22418;DHT22;11376;50.932;4.442;2023-12-20T06:31:56;6.20;99.90
22418;DHT22;11376;50.932;4.442;2023-12-20T06:34:22;6.10;99.90
22418;DHT22;11376;50.932;4.442;2023-12-20T06:36:47;6.20;99.90
22418;DHT22;11376;50.932;4.442;2023-12-20T06:39:13;6.20;99.90
22418;DHT22;11376;50.932;4.442;2023-12-20T06:41:39;6.20;99.90
22418;DHT22;11376;50.932;4.442;2023-12-20T06:44:05;6.20;99.90
22418;DHT22;11376;50.932;4.442;2023-12-20T06:46:30;6.20;99.90
22418;DHT22;11376;50.932;4.442;2023-12-20T06:48:56;6.10;99.90
22418;DHT22;11376;50.932;4.442;2023-12-20T06:51:22;6.00;99.90
22418;DHT22;11376;50.932;4.442;2023-12-20T06:53:51;5.90;99.90
22418;DHT22;11376;50.932;4.442;2023-12-20T06:56:17;5.90;99.90
22418;DHT22;11376;50.932;4.442;2023-12-20T06:58:42;5.80;99.90
22418;DHT22;11376;50.932;4.442;2023-12-20T07:01:12;5.80;99.90
22418;DHT22;11376;50.932;4.442;2023-12-20T07:03:38;5.80;99.90
22418;DHT22;11376;50.932;4.442;2023-12-20T07:06:04;5.70;99.90
22418;DHT22;11376;50.932;4.442;2023-12-20T07:08:29;5.70;99.90
22418;DHT22;11376;50.932;4.442;2023-12-20T07:10:55;5.70;99.90
22418;DHT22;11376;50.932;4.442;2023-12-20T07:13:20;5.80;99.90
22418;DHT22;11376;50.932;4.442;2023-12-20T07:15:47;5.80;99.90
22418;DHT22;11376;50.932;4.442;2023-12-20T07:18:13;5.70;99.90
22418;DHT22;11376;50.932;4.442;2023-12-20T07:20:38;5.80;99.90
22418;DHT22;11376;50.932;4.442;2023-12-20T07:23:04;5.80;99.90
22418;DHT22;11376;50.932;4.442;2023-12-20T07:25:30;5.80;99.90
22418;DHT22;11376;50.932;4.442;2023-12-20T07:27:58;5.80;99.90
22418;DHT22;11376;50.932;4.442;2023-12-20T07:30:24;5.80;99.90
22418;DHT22;11376;50.932;4.442;2023-12-20T07:32:49;5.80;99.90
22418;DHT22;11376;50.932;4.442;2023-12-20T07:35:16;5.80;99.90
22418;DHT22;11376;50.932;4.442;2023-12-20T07:37:41;5.80;99.90
22418;DHT22;11376;50.932;4.442;2023-12-20T07:40:08;5.70;99.90
22418;DHT22;11376;50.932;4.442;2023-12-20T07:42:33;5.70;99.90
22418;DHT22;11376;50.932;4.442;2023-12-20T07:44:59;5.70;99.90
22418;DHT22;11376;50.932;4.442;2023-12-20T07:47:24;5.70;99.90
22418;DHT22;11376;50.932;4.442;2023-12-20T07:49:51;5.70;99.90
22418;DHT22;11376;50.932;4.442;2023-12-20T07:52:19;5.70;99.90
22418;DHT22;11376;50.932;4.442;2023-12-20T07:54:45;5.70;99.90
22418;DHT22;11376;50.932;4.442;2023-12-20T07:57:11;5.70;99.90
22418;DHT22;11376;50.932;4.442;2023-12-20T07:59:37;5.80;99.90
22418;DHT22;11376;50.932;4.442;2023-12-20T08:02:03;5.80;99.90
22418;DHT22;11376;50.932;4.442;2023-12-20T08:04:29;5.70;99.90
22418;DHT22;11376;50.932;4.442;2023-12-20T08:06:54;5.70;99.90
22418;DHT22;11376;50.932;4.442;2023-12-20T08:09:20;5.80;99.90
22418;DHT22;11376;50.932;4.442;2023-12-20T08:11:47;5.70;99.90
22418;DHT22;11376;50.932;4.442;2023-12-20T08:14:12;5.80;99.90
22418;DHT22;11376;50.932;4.442;2023-12-20T08:16:38;5.80;99.90
22418;DHT22;11376;50.932;4.442;2023-12-20T08:19:04;5.80;99.90
22418;DHT22;11376;50.932;4.442;2023-12-20T08:21:29;5.80;99.90
22418;DHT22;11376;50.932;4.442;2023-12-20T08:23:55;5.80;99.90
22418;DHT22;11376;50.932;4.442;2023-12-20T08:26:21;5.80;99.90
22418;DHT22;11376;50.932;4.442;2023-12-20T08:28:48;5.90;99.90
22418;DHT22;11376;50.932;4.442;2023-12-20T08:31:15;5.90;99.90
22418;DHT22;11376;50.932;4.442;2023-12-20T08:33:45;6.00;99.90
22418;DHT22;11376;50.932;4.442;2023-12-20T08:36:11;6.10;99.90
22418;DHT22;11376;50.932;4.442;2023-12-20T08:38:37;6.10;99.90
22418;DHT22;11376;50.932;4.442;2023-12-20T08:41:03;6.10;99.90
22418;DHT22;11376;50.932;4.442;2023-12-20T08:43:39;6.20;99.90
22418;DHT22;11376;50.932;4.442;2023-12-20T08:46:08;6.30;99.90
22418;DHT22;11376;50.932;4.442;2023-12-20T08:48:35;6.30;99.90
22418;DHT22;11376;50.932;4.442;2023-12-20T08:51:01;6.30;99.90
22418;DHT22;11376;50.932;4.442;2023-12-20T08:53:26;6.30;99.90
22418;DHT22;11376;50.932;4.442;2023-12-20T08:55:52;6.20;99.90
22418;DHT22;11376;50.932;4.442;2023-12-20T08:58:18;6.20;99.90
22418;DHT22;11376;50.932;4.442;2023-12-20T09:00:43;6.20;99.90
22418;DHT22;11376;50.932;4.442;2023-12-20T09:03:09;6.20;99.90
22418;DHT22;11376;50.932;4.442;2023-12-20T09:05:35;6.30;99.90
22418;DHT22;11376;50.932;4.442;2023-12-20T09:08:00;6.30;99.90
22418;DHT22;11376;50.932;4.442;2023-12-20T09:10:26;6.30;99.90
22418;DHT22;11376;50.932;4.442;2023-12-20T09:12:52;6.30;99.90
22418;DHT22;11376;50.932;4.442;2023-12-20T09:15:26;6.40;99.90
22418;DHT22;11376;50.932;4.442;2023-12-20T09:17:52;6.40;99.90
22418;DHT22;11376;50.932;4.442;2023-12-20T09:20:18;6.40;99.90
22418;DHT22;11376;50.932;4.442;2023-12-20T09:22:44;6.40;99.90
22418;DHT22;11376;50.932;4.442;2023-12-20T09:25:10;6.50;99.90
22418;DHT22;11376;50.932;4.442;2023-12-20T09:27:36;6.50;99.90
22418;DHT22;11376;50.932;4.442;2023-12-20T09:30:02;6.50;99.90
22418;DHT22;11376;50.932;4.442;2023-12-20T09:32:30;6.60;99.90
22418;DHT22;11376;50.932;4.442;2023-12-20T09:34:56;6.70;99.90
22418;DHT22;11376;50.932;4.442;2023-12-20T09:37:25;6.80;99.90
22418;DHT22;11376;50.932;4.442;2023-12-20T09:39:51;6.90;99.90
22418;DHT22;11376;50.932;4.442;2023-12-20T09:42:24;7.10;99.90
22418;DHT22;11376;50.932;4.442;2023-12-20T09:44:50;7.30;99.90
22418;DHT22;11376;50.932;4.442;2023-12-20T09:47:20;7.50;99.90
22418;DHT22;11376;50.932;4.442;2023-12-20T09:49:48;7.50;99.90
22418;DHT22;11376;50.932;4.442;2023-12-20T09:52:14;7.70;99.90
22418;DHT22;11376;50.932;4.442;2023-12-20T09:54:41;7.80;99.90
22418;DHT22;11376;50.932;4.442;2023-12-20T09:57:09;7.80;99.90
22418;DHT22;11376;50.932;4.442;2023-12-20T09:59:35;7.90;99.90
22418;DHT22;11376;50.932;4.442;2023-12-20T10:02:01;7.70;99.90
22418;DHT22;11376;50.932;4.442;2023-12-20T10:04:31;7.60;99.90
22418;DHT22;11376;50.932;4.442;2023-12-20T10:07:02;7.60;99.90
22418;DHT22;11376;50.932;4.442;2023-12-20T10:09:31;7.70;99.90
22418;DHT22;11376;50.932;4.442;2023-12-20T10:11:57;7.60;99.90
22418;DHT22;11376;50.932;4.442;2023-12-20T10:14:23;7.70;99.90
22418;DHT22;11376;50.932;4.442;2023-12-20T10:16:49;7.80;99.90
22418;DHT22;11376;50.932;4.442;2023-12-20T10:19:17;7.80;99.90
22418;DHT22;11376;50.932;4.442;2023-12-20T10:21:43;7.90;99.90
22418;DHT22;11376;50.932;4.442;2023-12-20T10:24:17;7.80;99.90
22418;DHT22;11376;50.932;4.442;2023-12-20T10:26:42;7.80;99.90
22418;DHT22;11376;50.932;4.442;2023-12-20T10:29:08;7.80;99.90
22418;DHT22;11376;50.932;4.442;2023-12-20T10:31:35;7.80;99.90
22418;DHT22;11376;50.932;4.442;2023-12-20T10:34:02;7.90;99.90
22418;DHT22;11376;50.932;4.442;2023-12-20T10:36:31;7.80;99.90
22418;DHT22;11376;50.932;4.442;2023-12-20T10:38:57;7.90;99.90
22418;DHT22;11376;50.932;4.442;2023-12-20T10:41:31;7.90;99.90
22418;DHT22;11376;50.932;4.442;2023-12-20T10:44:02;7.90;99.90
22418;DHT22;11376;50.932;4.442;2023-12-20T10:46:29;7.90;99.90
22418;DHT22;11376;50.932;4.442;2023-12-20T10:48:56;8.00;99.90
22418;DHT22;11376;50.932;4.442;2023-12-20T10:51:23;8.00;99.90
22418;DHT22;11376;50.932;4.442;2023-12-20T10:53:53;8.00;99.90
22418;DHT22;11376;50.932;4.442;2023-12-20T10:56:19;8.10;99.90
22418;DHT22;11376;50.932;4.442;2023-12-20T10:58:45;8.10;99.90
22418;DHT22;11376;50.932;4.442;2023-12-20T11:01:16;8.10;99.90
22418;DHT22;11376;50.932;4.442;2023-12-20T11:03:52;8.10;99.90
22418;DHT22;11376;50.932;4.442;2023-12-20T11:11:46;8.10;99.90
22418;DHT22;11376;50.932;4.442;2023-12-20T11:14:23;8.10;99.90
22418;DHT22;11376;50.932;4.442;2023-12-20T11:16:50;8.10;99.90
22418;DHT22;11376;50.932;4.442;2023-12-20T11:19:16;8.10;99.90
22418;DHT22;11376;50.932;4.442;2023-12-20T11:21:42;8.10;99.90
22418;DHT22;11376;50.932;4.442;2023-12-20T11:24:09;8.20;99.90
22418;DHT22;11376;50.932;4.442;2023-12-20T11:26:35;8.20;99.90
22418;DHT22;11376;50.932;4.442;2023-12-20T11:29:33;8.30;99.90
22418;DHT22;11376;50.932;4.442;2023-12-20T11:32:03;8.20;99.90
22418;DHT22;11376;50.932;4.442;2023-12-20T11:34:32;8.30;99.90
22418;DHT22;11376;50.932;4.442;2023-12-20T11:36:59;8.30;99.90
22418;DHT22;11376;50.932;4.442;2023-12-20T11:39:26;8.30;99.90
22418;DHT22;11376;50.932;4.442;2023-12-20T11:41:55;8.30;99.90
22418;DHT22;11376;50.932;4.442;2023-12-20T11:44:21;8.40;99.90
22418;DHT22;11376;50.932;4.442;2023-12-20T11:46:47;8.40;99.90
22418;DHT22;11376;50.932;4.442;2023-12-20T11:49:13;8.40;99.90
22418;DHT22;11376;50.932;4.442;2023-12-20T11:51:42;8.50;99.90
22418;DHT22;11376;50.932;4.442;2023-12-20T11:54:07;8.40;99.90
22418;DHT22;11376;50.932;4.442;2023-12-20T11:56:35;8.30;99.90
22418;DHT22;11376;50.932;4.442;2023-12-20T11:59:01;8.30;99.90
22418;DHT22;11376;50.932;4.442;2023-12-20T12:01:27;8.30;99.90
22418;DHT22;11376;50.932;4.442;2023-12-20T12:04:07;8.40;99.90
22418;DHT22;11376;50.932;4.442;2023-12-20T12:06:33;8.40;99.90
22418;DHT22;11376;50.932;4.442;2023-12-20T12:08:59;8.40;99.90
22418;DHT22;11376;50.932;4.442;2023-12-20T12:11:25;8.40;99.90
22418;DHT22;11376;50.932;4.442;2023-12-20T12:13:51;8.40;99.90
22418;DHT22;11376;50.932;4.442;2023-12-20T12:16:17;8.50;99.90
22418;DHT22;11376;50.932;4.442;2023-12-20T12:18:44;8.50;99.90
22418;DHT22;11376;50.932;4.442;2023-12-20T12:21:10;8.60;99.90
22418;DHT22;11376;50.932;4.442;2023-12-20T12:23:36;8.50;99.90
22418;DHT22;11376;50.932;4.442;2023-12-20T12:26:05;8.60;99.90
22418;DHT22;11376;50.932;4.442;2023-12-20T12:28:31;8.60;99.90
22418;DHT22;11376;50.932;4.442;2023-12-20T12:31:01;8.60;99.90
22418;DHT22;11376;50.932;4.442;2023-12-20T12:33:26;8.60;99.90
22418;DHT22;11376;50.932;4.442;2023-12-20T12:35:52;8.60;99.90
22418;DHT22;11376;50.932;4.442;2023-12-20T12:38:22;8.60;99.90
22418;DHT22;11376;50.932;4.442;2023-12-20T12:40:48;8.60;99.90
22418;DHT22;11376;50.932;4.442;2023-12-20T12:43:15;8.60;99.90
22418;DHT22;11376;50.932;4.442;2023-12-20T12:45:40;8.60;99.90
22418;DHT22;11376;50.932;4.442;2023-12-20T12:48:06;8.60;99.90
22418;DHT22;11376;50.932;4.442;2023-12-20T12:50:32;8.60;99.90
22418;DHT22;11376;50.932;4.442;2023-12-20T12:52:57;8.60;99.90
22418;DHT22;11376;50.932;4.442;2023-12-20T12:55:23;8.60;99.90
22418;DHT22;11376;50.932;4.442;2023-12-20T12:57:49;8.70;99.90
22418;DHT22;11376;50.932;4.442;2023-12-20T13:00:14;8.70;99.90
22418;DHT22;11376;50.932;4.442;2023-12-20T13:02:40;8.70;99.90
22418;DHT22;11376;50.932;4.442;2023-12-20T13:05:09;8.70;99.90
22418;DHT22;11376;50.932;4.442;2023-12-20T13:07:34;8.60;99.90
22418;DHT22;11376;50.932;4.442;2023-12-20T13:10:01;8.60;99.90
22418;DHT22;11376;50.932;4.442;2023-12-20T13:12:26;8.60;99.90
22418;DHT22;11376;50.932;4.442;2023-12-20T13:14:52;8.60;99.90
22418;DHT22;11376;50.932;4.442;2023-12-20T13:17:19;8.60;99.90
22418;DHT22;11376;50.932;4.442;2023-12-20T13:19:45;8.60;99.90
22418;DHT22;11376;50.932;4.442;2023-12-20T13:22:10;8.60;99.90
22418;DHT22;11376;50.932;4.442;2023-12-20T13:24:36;8.80;99.90
22418;DHT22;11376;50.932;4.442;2023-12-20T13:27:02;8.80;99.90
22418;DHT22;11376;50.932;4.442;2023-12-20T13:29:27;8.90;99.90
22418;DHT22;11376;50.932;4.442;2023-12-20T13:31:53;8.90;99.90
22418;DHT22;11376;50.932;4.442;2023-12-20T13:34:19;8.80;99.90
22418;DHT22;11376;50.932;4.442;2023-12-20T13:36:45;8.80;99.90
22418;DHT22;11376;50.932;4.442;2023-12-20T13:39:13;8.80;99.90
22418;DHT22;11376;50.932;4.442;2023-12-20T13:41:39;8.90;99.90
22418;DHT22;11376;50.932;4.442;2023-12-20T13:44:05;8.90;99.90
22418;DHT22;11376;50.932;4.442;2023-12-20T13:46:31;8.90;99.90
22418;DHT22;11376;50.932;4.442;2023-12-20T13:48:57;8.90;99.90
22418;DHT22;11376;50.932;4.442;2023-12-20T13:51:22;8.90;99.90
22418;DHT22;11376;50.932;4.442;2023-12-20T13:53:48;8.90;99.90
22418;DHT22;11376;50.932;4.442;2023-12-20T13:56:15;8.90;99.90
22418;DHT22;11376;50.932;4.442;2023-12-20T13:58:40;9.00;99.90
22418;DHT22;11376;50.932;4.442;2023-12-20T14:01:07;9.00;99.90
22418;DHT22;11376;50.932;4.442;2023-12-20T14:03:34;9.00;99.90
22418;DHT22;11376;50.932;4.442;2023-12-20T14:06:00;9.00;99.90
22418;DHT22;11376;50.932;4.442;2023-12-20T14:08:27;9.00;99.90
22418;DHT22;11376;50.932;4.442;2023-12-20T14:10:53;9.00;99.90
22418;DHT22;11376;50.932;4.442;2023-12-20T14:13:19;9.10;99.90
22418;DHT22;11376;50.932;4.442;2023-12-20T14:15:44;9.00;99.90
22418;DHT22;11376;50.932;4.442;2023-12-20T14:18:10;9.10;99.90
22418;DHT22;11376;50.932;4.442;2023-12-20T14:20:37;9.00;99.90
22418;DHT22;11376;50.932;4.442;2023-12-20T14:23:05;9.00;99.90
22418;DHT22;11376;50.932;4.442;2023-12-20T14:25:30;9.10;99.90
22418;DHT22;11376;50.932;4.442;2023-12-20T14:27:59;9.10;99.90
22418;DHT22;11376;50.932;4.442;2023-12-20T14:30:25;9.10;99.90
22418;DHT22;11376;50.932;4.442;2023-12-20T14:32:51;9.10;99.90
22418;DHT22;11376;50.932;4.442;2023-12-20T14:35:16;9.20;99.90
22418;DHT22;11376;50.932;4.442;2023-12-20T14:37:42;9.20;99.90
22418;DHT22;11376;50.932;4.442;2023-12-20T14:40:08;9.20;99.90
22418;DHT22;11376;50.932;4.442;2023-12-20T14:42:49;9.20;99.90
22418;DHT22;11376;50.932;4.442;2023-12-20T14:45:15;9.20;99.90
22418;DHT22;11376;50.932;4.442;2023-12-20T14:47:44;9.20;99.90
22418;DHT22;11376;50.932;4.442;2023-12-20T14:50:10;9.20;99.90
22418;DHT22;11376;50.932;4.442;2023-12-20T14:52:42;9.20;99.90
22418;DHT22;11376;50.932;4.442;2023-12-20T14:55:08;9.20;99.90
22418;DHT22;11376;50.932;4.442;2023-12-20T14:57:33;9.20;99.90
22418;DHT22;11376;50.932;4.442;2023-12-20T14:59:59;9.30;99.90
22418;DHT22;11376;50.932;4.442;2023-12-20T15:02:24;9.30;99.90
22418;DHT22;11376;50.932;4.442;2023-12-20T15:04:50;9.30;99.90
22418;DHT22;11376;50.932;4.442;2023-12-20T15:07:16;9.20;99.90
22418;DHT22;11376;50.932;4.442;2023-12-20T15:09:42;9.20;99.90
22418;DHT22;11376;50.932;4.442;2023-12-20T15:12:12;9.30;99.90
22418;DHT22;11376;50.932;4.442;2023-12-20T15:14:38;9.30;99.90
22418;DHT22;11376;50.932;4.442;2023-12-20T15:17:03;9.30;99.90
22418;DHT22;11376;50.932;4.442;2023-12-20T15:19:30;9.30;99.90
22418;DHT22;11376;50.932;4.442;2023-12-20T15:21:56;9.30;99.90
22418;DHT22;11376;50.932;4.442;2023-12-20T15:24:22;9.20;99.90
22418;DHT22;11376;50.932;4.442;2023-12-20T15:26:54;9.30;99.90
22418;DHT22;11376;50.932;4.442;2023-12-20T15:29:19;9.30;99.90
22418;DHT22;11376;50.932;4.442;2023-12-20T15:31:46;9.30;99.90
22418;DHT22;11376;50.932;4.442;2023-12-20T15:34:12;9.30;99.90
22418;DHT22;11376;50.932;4.442;2023-12-20T15:36:39;9.30;99.90
22418;DHT22;11376;50.932;4.442;2023-12-20T15:39:05;9.30;99.90
22418;DHT22;11376;50.932;4.442;2023-12-20T15:41:32;9.30;99.90
22418;DHT22;11376;50.932;4.442;2023-12-20T15:43:58;9.30;99.90